Time;durP1;ratioP1;P1;durP2;ratioP2;P2;SDS_P1;SDS_P2;PMS_P1;PMS_P2;Temp;Humidity;BMP_temperature;BMP_pressure;BME280_temperature;BME280_humidity;BME280_pressure;Samples;Min_cycle;Max_cycle;Signal;HPM_P1;HPM_P2
2022/07/11 00:01:17;;;;;;;5.20;1.70;;;16.40;99.90;;;;;;5076384;28;20048;-78
2022/07/11 00:03:43;;;;;;;3.55;1.63;;;16.30;99.90;;;;;;5089683;28;20040;-78
2022/07/11 00:06:09;;;;;;;6.70;1.88;;;16.30;99.90;;;;;;5111378;28;20044;-79
2022/07/11 00:08:34;;;;;;;3.55;1.80;;;16.30;99.90;;;;;;5081351;28;20055;-79
2022/07/11 00:11:00;;;;;;;2.97;1.45;;;16.30;99.90;;;;;;5075601;28;20504;-79
2022/07/11 00:13:25;;;;;;;3.63;1.55;;;16.30;99.90;;;;;;5075927;28;20048;-79
2022/07/11 00:15:51;;;;;;;3.58;1.48;;;16.20;99.90;;;;;;5094025;28;20036;-79
2022/07/11 00:18:17;;;;;;;2.63;1.48;;;16.20;99.90;;;;;;5075638;28;20048;-80
2022/07/11 00:20:42;;;;;;;1.75;1.33;;;16.20;99.90;;;;;;5075602;28;20444;-79
2022/07/11 00:23:08;;;;;;;3.33;1.95;;;16.10;99.90;;;;;;5075947;28;20040;-79
2022/07/11 00:25:33;;;;;;;4.95;1.60;;;16.10;99.90;;;;;;5092316;28;20032;-78
2022/07/11 00:27:59;;;;;;;6.88;1.50;;;16.00;99.90;;;;;;5092468;28;20047;-78
2022/07/11 00:30:24;;;;;;;2.13;1.20;;;16.10;99.90;;;;;;5075805;28;20043;-79
2022/07/11 00:32:50;;;;;;;2.28;1.73;;;16.00;99.90;;;;;;5092443;28;20039;-79
2022/07/11 00:35:16;;;;;;;3.47;1.65;;;16.00;99.90;;;;;;5075806;28;20063;-78
2022/07/11 00:37:41;;;;;;;3.22;1.48;;;15.90;99.90;;;;;;5075397;28;20478;-79
2022/07/11 00:40:08;;;;;;;5.88;1.80;;;15.90;99.90;;;;;;5091799;28;20050;-78
2022/07/11 00:42:33;;;;;;;3.30;1.45;;;15.90;99.90;;;;;;5093449;28;20551;-79
2022/07/11 00:44:59;;;;;;;4.38;1.60;;;15.90;99.90;;;;;;5075279;28;20048;-79
2022/07/11 00:47:25;;;;;;;3.88;2.00;;;15.80;99.90;;;;;;5093264;28;20114;-78
2022/07/11 00:49:50;;;;;;;5.30;1.85;;;15.80;99.90;;;;;;5092897;28;20430;-78
2022/07/11 00:52:16;;;;;;;3.30;1.83;;;15.90;99.90;;;;;;5075250;28;20093;-79
2022/07/11 00:54:43;;;;;;;8.45;2.17;;;15.80;99.90;;;;;;5075286;28;20036;-79
2022/07/11 00:57:09;;;;;;;6.07;2.63;;;15.80;99.90;;;;;;5093018;28;20156;-79
2022/07/11 00:59:35;;;;;;;6.22;2.35;;;15.80;99.90;;;;;;5075011;28;20078;-79
2022/07/11 01:02:02;;;;;;;9.80;2.65;;;15.80;99.90;;;;;;5058660;28;20463;-79
2022/07/11 01:04:27;;;;;;;6.22;2.45;;;15.80;99.90;;;;;;5074791;28;20150;-78
2022/07/11 01:06:53;;;;;;;6.10;2.63;;;15.80;99.90;;;;;;5091680;28;20214;-78
2022/07/11 01:09:18;;;;;;;8.98;2.92;;;15.80;99.90;;;;;;5074690;28;20714;-79
2022/07/11 01:11:44;;;;;;;6.78;2.75;;;15.80;99.90;;;;;;5074781;28;20032;-79
2022/07/11 01:14:10;;;;;;;7.50;2.90;;;15.70;99.90;;;;;;5074873;28;20491;-78
2022/07/11 01:16:35;;;;;;;5.07;2.85;;;15.80;99.90;;;;;;5074637;28;20044;-79
2022/07/11 01:19:01;;;;;;;6.78;2.85;;;15.70;99.90;;;;;;5090815;28;20044;-78
2022/07/11 01:21:40;;;;;;;6.05;2.50;;;15.70;99.90;;;;;;5074210;28;20044;-79
2022/07/11 01:24:07;;;;;;;4.10;2.40;;;15.80;99.90;;;;;;5074332;28;20051;-79
2022/07/11 01:26:33;;;;;;;9.55;2.90;;;15.80;99.90;;;;;;5074484;28;20615;-79
2022/07/11 01:29:10;;;;;;;5.35;2.78;;;15.70;99.90;;;;;;5074275;28;20127;-79
2022/07/11 01:31:39;;;;;;;6.82;3.10;;;15.80;99.90;;;;;;5074190;28;20047;-79
2022/07/11 01:34:05;;;;;;;7.38;3.03;;;15.80;99.90;;;;;;5074197;28;20777;-79
2022/07/11 01:36:31;;;;;;;8.50;2.88;;;15.80;99.90;;;;;;5074456;28;20040;-79
2022/07/11 01:38:57;;;;;;;4.15;2.40;;;15.70;99.90;;;;;;5074641;28;20039;-78
2022/07/11 01:41:22;;;;;;;6.82;3.03;;;15.80;99.90;;;;;;5092085;28;20036;-79
2022/07/11 01:43:48;;;;;;;7.03;3.33;;;15.70;99.90;;;;;;5057484;28;20566;-79
2022/07/11 01:46:14;;;;;;;7.82;3.22;;;15.80;99.90;;;;;;5074047;28;20399;-79
2022/07/11 01:48:40;;;;;;;3.83;2.83;;;15.80;99.90;;;;;;5073897;28;20040;-79
2022/07/11 01:51:06;;;;;;;6.55;2.90;;;15.80;99.90;;;;;;5091918;28;20115;-79
2022/07/11 01:53:32;;;;;;;9.55;3.30;;;15.80;99.90;;;;;;5073797;28;20502;-79
2022/07/11 01:55:57;;;;;;;6.97;2.78;;;15.70;99.90;;;;;;5073963;28;20127;-79
2022/07/11 01:58:23;;;;;;;5.72;3.20;;;15.70;99.90;;;;;;5090698;28;20089;-79
2022/07/11 02:00:48;;;;;;;6.82;3.17;;;15.70;99.90;;;;;;5090548;28;20462;-79
2022/07/11 02:03:14;;;;;;;6.75;2.83;;;15.70;99.90;;;;;;5073923;28;20044;-79
2022/07/11 02:05:40;;;;;;;7.63;3.30;;;15.60;99.90;;;;;;5073960;28;20035;-79
2022/07/11 02:08:13;;;;;;;6.20;2.35;;;15.70;99.90;;;;;;5090386;28;20048;-79
2022/07/11 02:10:50;;;;;;;8.45;3.50;;;15.70;99.90;;;;;;5073309;28;20040;-79
2022/07/11 02:13:18;;;;;;;6.72;2.80;;;15.60;99.90;;;;;;5073648;28;20040;-80
2022/07/11 02:15:44;;;;;;;6.93;3.40;;;15.60;99.90;;;;;;5056826;28;20028;-79
2022/07/11 02:18:11;;;;;;;7.57;3.20;;;15.50;99.90;;;;;;5091529;28;20044;-79
2022/07/11 02:20:39;;;;;;;5.18;2.92;;;15.60;99.90;;;;;;5072967;28;20502;-79
2022/07/11 02:23:05;;;;;;;7.38;2.97;;;15.60;99.90;;;;;;5073636;28;20687;-79
2022/07/11 02:25:31;;;;;;;8.95;3.20;;;15.60;99.90;;;;;;5073339;28;20131;-79
2022/07/11 02:27:57;;;;;;;9.23;3.50;;;15.60;99.90;;;;;;5091246;28;20119;-79
2022/07/11 02:30:23;;;;;;;8.68;2.95;;;15.60;99.90;;;;;;5072807;28;20115;-79
2022/07/11 02:32:50;;;;;;;6.85;3.28;;;15.60;99.90;;;;;;5073173;28;20542;-79
2022/07/11 02:35:16;;;;;;;6.78;2.83;;;15.60;99.90;;;;;;5073247;28;20047;-79
2022/07/11 02:37:43;;;;;;;6.43;3.17;;;15.60;99.90;;;;;;5056443;28;20401;-79
2022/07/11 02:40:09;;;;;;;7.05;2.90;;;15.60;99.90;;;;;;5073044;28;20120;-79
2022/07/11 02:42:35;;;;;;;9.13;3.42;;;15.60;99.90;;;;;;5073317;28;20044;-79
2022/07/11 02:45:04;;;;;;;4.70;2.70;;;15.60;99.90;;;;;;5073232;28;20407;-79
2022/07/11 02:47:30;;;;;;;11.77;3.03;;;15.60;99.90;;;;;;5091506;28;20408;-79
2022/07/11 02:49:55;;;;;;;8.38;3.30;;;15.60;99.90;;;;;;5056191;28;20036;-79
2022/07/11 02:52:21;;;;;;;7.03;3.40;;;15.60;99.90;;;;;;5073414;28;20044;-79
2022/07/11 02:54:46;;;;;;;6.78;3.00;;;15.60;99.90;;;;;;5073053;28;20074;-79
2022/07/11 02:57:12;;;;;;;6.85;2.90;;;15.50;99.90;;;;;;5072941;28;20527;-79
2022/07/11 02:59:38;;;;;;;8.10;3.17;;;15.60;99.90;;;;;;5090707;28;20134;-79
2022/07/11 03:02:04;;;;;;;8.43;3.20;;;15.60;99.90;;;;;;5089897;28;20048;-79
2022/07/11 03:04:32;;;;;;;8.15;2.80;;;15.60;99.90;;;;;;5072960;28;20094;-79
2022/07/11 03:06:58;;;;;;;4.35;2.67;;;15.50;99.90;;;;;;5073115;28;20490;-79
2022/07/11 03:09:23;;;;;;;5.85;2.70;;;15.60;99.90;;;;;;5072999;28;20153;-79
2022/07/11 03:11:50;;;;;;;6.35;2.75;;;15.50;99.90;;;;;;5072672;28;20085;-79
2022/07/11 03:14:16;;;;;;;5.75;3.25;;;15.50;99.90;;;;;;5072725;28;20044;-79
2022/07/11 03:16:42;;;;;;;5.35;2.47;;;15.60;99.90;;;;;;5056143;28;20048;-79
2022/07/11 03:19:08;;;;;;;8.70;2.90;;;15.50;99.90;;;;;;5072820;28;20044;-79
2022/07/11 03:21:34;;;;;;;9.75;3.72;;;15.50;99.90;;;;;;5072685;28;20085;-79
2022/07/11 03:23:59;;;;;;;7.43;2.83;;;15.50;99.90;;;;;;5072968;28;20471;-79
2022/07/11 03:26:26;;;;;;;7.95;2.65;;;15.50;99.90;;;;;;5072670;28;20051;-79
2022/07/11 03:28:51;;;;;;;4.70;2.38;;;15.50;99.90;;;;;;5072709;28;20052;-79
2022/07/11 03:31:18;;;;;;;6.95;2.70;;;15.50;99.90;;;;;;5072699;28;20040;-80
2022/07/11 03:33:44;;;;;;;10.40;3.15;;;15.50;99.90;;;;;;5090772;28;20405;-79
2022/07/11 03:36:10;;;;;;;5.85;2.70;;;15.50;99.90;;;;;;5072492;28;20046;-79
2022/07/11 03:38:35;;;;;;;6.75;2.55;;;15.50;99.90;;;;;;5072686;28;20043;-79
2022/07/11 03:41:01;;;;;;;4.30;2.72;;;15.50;99.90;;;;;;5072403;28;20044;-80
2022/07/11 03:43:26;;;;;;;4.75;2.25;;;15.50;99.90;;;;;;5076039;28;20040;-80
2022/07/11 03:45:52;;;;;;;5.20;2.80;;;15.50;99.90;;;;;;5076373;28;20109;-79
2022/07/11 03:48:17;;;;;;;4.93;3.25;;;15.50;99.90;;;;;;5093243;28;20405;-79
2022/07/11 03:50:43;;;;;;;8.40;3.28;;;15.50;99.90;;;;;;5076119;28;20093;-79
2022/07/11 03:53:09;;;;;;;5.40;2.90;;;15.50;99.90;;;;;;5093296;28;20059;-79
2022/07/11 03:55:34;;;;;;;7.25;3.00;;;15.50;99.90;;;;;;5076364;28;20052;-79
2022/07/11 03:58:00;;;;;;;7.35;2.65;;;15.50;99.90;;;;;;5075952;28;20050;-79
2022/07/11 04:00:26;;;;;;;10.25;3.22;;;15.50;99.90;;;;;;5075637;28;20070;-79
2022/07/11 04:02:52;;;;;;;6.47;3.38;;;15.50;99.90;;;;;;5094099;28;20048;-79
2022/07/11 04:05:17;;;;;;;5.57;2.80;;;15.50;99.90;;;;;;5075914;28;20081;-79
2022/07/11 04:07:43;;;;;;;9.80;3.03;;;15.50;99.90;;;;;;5092761;28;20036;-79
2022/07/11 04:10:09;;;;;;;6.97;2.53;;;15.50;99.90;;;;;;5075427;28;20174;-79
2022/07/11 04:12:34;;;;;;;13.60;2.83;;;15.60;99.90;;;;;;5075865;28;20160;-79
2022/07/11 04:15:00;;;;;;;8.57;2.60;;;15.60;99.90;;;;;;5076036;28;20032;-79
2022/07/11 04:17:26;;;;;;;5.90;2.75;;;15.60;99.90;;;;;;5075525;28;20165;-79
2022/07/11 04:19:53;;;;;;;5.40;3.00;;;15.60;99.90;;;;;;5093490;28;20398;-78
2022/07/11 04:22:19;;;;;;;7.07;2.90;;;15.60;99.90;;;;;;5075557;28;20048;-78
2022/07/11 04:24:44;;;;;;;7.90;2.72;;;15.60;99.90;;;;;;5075685;28;20047;-78
2022/07/11 04:27:10;;;;;;;7.30;2.40;;;15.60;99.90;;;;;;5075548;28;20040;-78
2022/07/11 04:29:35;;;;;;;5.40;2.72;;;15.60;99.90;;;;;;5075227;28;20036;-79
2022/07/11 04:32:01;;;;;;;4.68;2.63;;;15.60;99.90;;;;;;5075517;28;20047;-78
2022/07/11 04:34:27;;;;;;;8.95;3.00;;;15.60;99.90;;;;;;5092537;28;20114;-78
2022/07/11 04:36:52;;;;;;;6.65;2.10;;;15.60;99.90;;;;;;5075407;28;20040;-78
2022/07/11 04:39:18;;;;;;;9.55;3.10;;;15.60;99.90;;;;;;5075501;28;20055;-78
2022/07/11 04:41:43;;;;;;;5.20;2.40;;;15.60;99.90;;;;;;5075081;28;20046;-78
2022/07/11 04:44:09;;;;;;;6.43;2.20;;;15.70;99.90;;;;;;5075180;28;20441;-78
2022/07/11 04:46:35;;;;;;;3.30;2.22;;;15.70;99.90;;;;;;5075243;28;20093;-79
2022/07/11 04:49:00;;;;;;;3.97;2.13;;;15.80;99.90;;;;;;5091886;28;20493;-79
2022/07/11 04:51:26;;;;;;;6.15;2.35;;;15.80;99.90;;;;;;5091876;28;20141;-78
2022/07/11 04:53:52;;;;;;;3.05;2.05;;;15.80;99.90;;;;;;5093154;28;20115;-79
2022/07/11 04:56:18;;;;;;;4.43;2.17;;;15.80;99.90;;;;;;5075015;28;20169;-79
2022/07/11 04:58:43;;;;;;;2.83;1.88;;;15.90;99.90;;;;;;5091933;28;20130;-79
2022/07/11 05:01:09;;;;;;;4.68;2.28;;;15.90;99.90;;;;;;5091717;28;20071;-79
2022/07/11 05:03:36;;;;;;;3.75;1.67;;;15.80;99.90;;;;;;5074782;28;20097;-79
2022/07/11 05:06:02;;;;;;;2.55;1.58;;;15.90;99.90;;;;;;5074644;28;20097;-79
2022/07/11 05:08:29;;;;;;;2.28;1.63;;;15.90;99.90;;;;;;5074600;28;20082;-79
2022/07/11 05:10:55;;;;;;;3.00;1.73;;;16.00;99.90;;;;;;5074306;28;20088;-78
2022/07/11 05:13:21;;;;;;;4.85;1.63;;;16.00;99.90;;;;;;5074595;28;20035;-79
2022/07/11 05:15:46;;;;;;;4.32;1.83;;;16.10;99.90;;;;;;5074931;28;20105;-79
2022/07/11 05:18:12;;;;;;;3.78;1.48;;;16.10;99.90;;;;;;5074615;28;20039;-79
2022/07/11 05:20:38;;;;;;;1.67;1.42;;;16.10;99.90;;;;;;5074351;28;20032;-79
2022/07/11 05:23:03;;;;;;;2.67;1.58;;;16.20;99.90;;;;;;5091449;28;20076;-79
2022/07/11 05:25:29;;;;;;;3.78;1.52;;;16.30;99.90;;;;;;5074487;28;20039;-79
2022/07/11 05:27:54;;;;;;;3.38;1.50;;;16.30;99.90;;;;;;5074241;28;20174;-79
2022/07/11 05:30:20;;;;;;;3.45;1.55;;;16.30;99.90;;;;;;5074085;28;20040;-79
2022/07/11 05:32:46;;;;;;;2.60;1.40;;;16.30;99.90;;;;;;5091440;28;20032;-79
2022/07/11 05:35:11;;;;;;;2.90;1.33;;;16.40;99.90;;;;;;5074303;28;20031;-80
2022/07/11 05:37:37;;;;;;;2.25;1.33;;;16.60;99.90;;;;;;5074773;28;20121;-81
2022/07/11 05:40:03;;;;;;;1.08;0.85;;;16.90;99.90;;;;;;5074861;28;20048;-79
2022/07/11 05:42:31;;;;;;;0.95;0.75;;;17.00;99.90;;;;;;5058317;28;20040;-80
2022/07/11 05:44:56;;;;;;;1.55;1.02;;;17.20;99.90;;;;;;5074683;28;20032;-80
2022/07/11 05:47:22;;;;;;;1.13;0.60;;;17.40;99.90;;;;;;5074535;28;20044;-80
2022/07/11 05:49:47;;;;;;;1.98;0.98;;;17.40;99.90;;;;;;5073902;28;20040;-80
2022/07/11 05:52:13;;;;;;;2.38;0.63;;;17.30;99.90;;;;;;5074165;28;20035;-80
2022/07/11 05:54:40;;;;;;;1.45;1.10;;;17.30;99.90;;;;;;5074540;28;20079;-81
2022/07/11 05:57:06;;;;;;;4.28;0.85;;;17.20;99.90;;;;;;5074452;28;20075;-80
2022/07/11 05:59:31;;;;;;;2.15;0.65;;;17.10;99.90;;;;;;5074083;28;20044;-80
2022/07/11 06:01:57;;;;;;;1.02;0.60;;;17.10;99.90;;;;;;5074740;28;20062;-80
2022/07/11 06:04:23;;;;;;;2.15;0.98;;;17.30;99.90;;;;;;5073984;28;20074;-80
2022/07/11 06:06:48;;;;;;;0.60;0.43;;;17.60;99.90;;;;;;5092266;28;20059;-80
2022/07/11 06:09:14;;;;;;;14.23;10.05;;;17.70;99.90;;;;;;5073858;28;20094;-80
2022/07/11 06:11:40;;;;;;;3.50;1.30;;;17.90;99.90;;;;;;5056809;28;20043;-81
2022/07/11 06:14:06;;;;;;;1.27;0.95;;;17.80;99.90;;;;;;5057015;28;20035;-82
2022/07/11 06:16:33;;;;;;;1.58;0.63;;;17.80;99.90;;;;;;5057833;28;20451;-81
2022/07/11 06:18:58;;;;;;;2.17;0.77;;;17.60;99.90;;;;;;5092922;28;20054;-81
2022/07/11 06:21:25;;;;;;;1.33;0.47;;;17.50;99.90;;;;;;5074415;28;20044;-80
2022/07/11 06:23:51;;;;;;;0.70;0.55;;;17.50;99.90;;;;;;5075598;28;20043;-81
2022/07/11 06:26:17;;;;;;;1.30;0.65;;;17.50;99.90;;;;;;5074396;28;20121;-81
2022/07/11 06:28:43;;;;;;;0.75;0.50;;;17.50;99.90;;;;;;5057788;28;20040;-81
2022/07/11 06:31:08;;;;;;;0.50;0.40;;;17.60;99.90;;;;;;5090652;28;20040;-80
2022/07/11 06:33:37;;;;;;;0.60;0.50;;;17.70;99.90;;;;;;5074247;28;20032;-81
2022/07/11 06:36:04;;;;;;;1.42;0.50;;;17.80;99.90;;;;;;5092678;28;20036;-81
2022/07/11 06:38:30;;;;;;;1.27;0.50;;;17.80;99.90;;;;;;5057893;28;20103;-80
2022/07/11 06:40:56;;;;;;;1.17;0.30;;;17.90;99.90;;;;;;5060029;28;20039;-81
2022/07/11 06:43:22;;;;;;;0.88;0.40;;;18.00;99.90;;;;;;5078511;28;20047;-81
2022/07/11 06:45:47;;;;;;;0.32;0.28;;;18.20;99.90;;;;;;5077201;28;20044;-81
2022/07/11 06:48:13;;;;;;;0.98;0.57;;;18.20;99.90;;;;;;5077666;28;20074;-81
2022/07/11 06:50:39;;;;;;;1.15;0.40;;;18.30;99.90;;;;;;5078286;28;20032;-82
2022/07/11 06:53:05;;;;;;;1.60;0.50;;;18.40;99.90;;;;;;5093085;28;20023;-81
2022/07/11 06:55:31;;;;;;;1.50;0.40;;;18.40;99.90;;;;;;5080083;28;20071;-81
2022/07/11 06:57:58;;;;;;;0.88;0.50;;;18.40;99.90;;;;;;5080457;28;20032;-81
2022/07/11 07:00:23;;;;;;;1.35;0.43;;;18.50;99.90;;;;;;5082976;28;20132;-81
2022/07/11 07:02:49;;;;;;;1.75;0.50;;;18.60;99.90;;;;;;5060739;28;20506;-81
2022/07/11 07:05:15;;;;;;;0.20;0.20;;;18.80;99.90;;;;;;5091667;28;20086;-81
2022/07/11 07:07:40;;;;;;;0.20;0.20;;;18.90;99.90;;;;;;5073073;28;20036;-80
2022/07/11 07:10:07;;;;;;;0.77;0.20;;;19.00;99.90;;;;;;5090370;28;20066;-80
2022/07/11 07:12:36;;;;;;;0.40;0.32;;;19.20;99.90;;;;;;5073658;28;20032;-80
2022/07/11 07:15:02;;;;;;;0.75;0.25;;;19.40;99.90;;;;;;5092136;28;20485;-81
2022/07/11 07:17:28;;;;;;;0.85;0.30;;;19.40;99.90;;;;;;5059365;28;20036;-80
2022/07/11 07:19:53;;;;;;;0.13;0.10;;;19.30;99.90;;;;;;5077702;28;20051;-81
2022/07/11 07:22:19;;;;;;;0.70;0.22;;;19.20;99.90;;;;;;5078729;28;20052;-81
2022/07/11 07:24:45;;;;;;;0.70;0.30;;;19.00;99.90;;;;;;5078830;28;20059;-81
2022/07/11 07:27:11;;;;;;;0.30;0.20;;;18.80;99.90;;;;;;5078233;28;20128;-82
2022/07/11 07:29:38;;;;;;;0.30;0.30;;;18.70;99.90;;;;;;5060024;28;20051;-77
2022/07/11 07:32:05;;;;;;;0.47;0.30;;;18.60;99.90;;;;;;5079366;28;20383;-79
2022/07/11 07:34:32;;;;;;;0.43;0.30;;;18.50;99.90;;;;;;5078020;28;20132;-82
2022/07/11 07:36:58;;;;;;;2.17;0.65;;;18.40;99.90;;;;;;5077924;28;20543;-81
2022/07/11 07:39:23;;;;;;;1.08;0.45;;;18.40;99.90;;;;;;5077329;28;20119;-81
2022/07/11 07:41:49;;;;;;;0.50;0.30;;;18.30;99.90;;;;;;5077556;28;20105;-82
2022/07/11 07:44:14;;;;;;;0.50;0.50;;;18.30;99.90;;;;;;5076185;28;20121;-82
2022/07/11 07:46:40;;;;;;;0.73;0.30;;;18.30;99.90;;;;;;5077489;28;20083;-81
2022/07/11 07:49:06;;;;;;;0.80;0.45;;;18.40;99.90;;;;;;5076200;28;20508;-82
2022/07/11 07:51:32;;;;;;;1.02;0.60;;;18.60;99.90;;;;;;5092380;28;20043;-82
2022/07/11 07:53:57;;;;;;;0.43;0.43;;;18.60;99.90;;;;;;5076062;28;20048;-82
2022/07/11 07:56:24;;;;;;;0.45;0.40;;;18.70;99.90;;;;;;5059190;28;20371;-82
2022/07/11 07:58:51;;;;;;;0.85;0.38;;;18.70;99.90;;;;;;5075965;28;20150;-82
2022/07/11 08:01:35;;;;;;;0.47;0.43;;;18.70;99.90;;;;;;5075606;28;20211;-81
2022/07/11 08:04:05;;;;;;;3.55;0.50;;;18.60;99.90;;;;;;5076004;28;20066;-81
2022/07/11 08:06:32;;;;;;;1.13;0.30;;;18.60;99.90;;;;;;5060629;28;20166;-80
2022/07/11 08:08:58;;;;;;;0.80;0.43;;;18.70;99.90;;;;;;5077177;28;20487;-81
2022/07/11 08:11:25;;;;;;;0.60;0.45;;;18.90;99.90;;;;;;5081124;28;20394;-82
2022/07/11 08:13:51;;;;;;;1.20;0.32;;;19.00;99.90;;;;;;5076699;28;20446;-81
2022/07/11 08:16:16;;;;;;;0.63;0.40;;;19.20;99.90;;;;;;5059508;28;20398;-82
2022/07/11 08:18:42;;;;;;;1.65;0.40;;;19.50;99.90;;;;;;5059007;28;20044;-81
2022/07/11 08:21:09;;;;;;;0.70;0.30;;;19.40;99.90;;;;;;5059662;28;20489;-82
2022/07/11 08:23:35;;;;;;;0.80;0.30;;;19.30;99.90;;;;;;5076922;28;20044;-81
2022/07/11 08:26:00;;;;;;;0.40;0.20;;;19.10;99.90;;;;;;5058966;28;20077;-81
2022/07/11 08:28:26;;;;;;;0.38;0.20;;;19.00;99.90;;;;;;5074899;28;20044;-81
2022/07/11 08:30:52;;;;;;;0.65;0.15;;;19.10;99.90;;;;;;5074879;28;20043;-81
2022/07/11 08:33:17;;;;;;;0.60;0.30;;;19.30;99.90;;;;;;5058567;28;20040;-81
2022/07/11 08:35:43;;;;;;;0.63;0.50;;;19.80;99.90;;;;;;5092349;28;20130;-81
2022/07/11 08:38:09;;;;;;;1.15;0.43;;;20.30;99.90;;;;;;5092429;28;20072;-80
2022/07/11 08:40:34;;;;;;;1.02;0.30;;;20.70;99.90;;;;;;5093429;28;20043;-81
2022/07/11 08:43:10;;;;;;;0.73;0.40;;;20.70;99.90;;;;;;5077432;28;20052;-82
2022/07/11 08:45:36;;;;;;;0.20;0.20;;;20.70;99.90;;;;;;5074897;28;20181;-81
2022/07/11 08:48:02;;;;;;;0.40;0.20;;;20.40;99.90;;;;;;5075108;28;20162;-82
2022/07/11 08:50:27;;;;;;;0.68;0.20;;;20.10;99.90;;;;;;5074573;28;20513;-82
2022/07/11 08:52:58;;;;;;;0.47;0.40;;;19.90;99.90;;;;;;5074955;28;20040;-82
2022/07/11 08:55:24;;;;;;;1.85;0.35;;;19.70;99.90;;;;;;5074594;28;20127;-81
2022/07/11 08:57:50;;;;;;;0.30;0.30;;;19.50;99.90;;;;;;5058071;28;20086;-81
2022/07/11 09:00:16;;;;;;;0.20;0.15;;;19.40;99.90;;;;;;5057607;28;20036;-79
2022/07/11 09:02:43;;;;;;;0.75;0.32;;;19.40;99.90;;;;;;5057944;28;20050;-78
2022/07/11 09:05:09;;;;;;;0.88;0.20;;;19.40;99.90;;;;;;5074736;28;20056;-78
2022/07/11 09:07:50;;;;;;;0.47;0.30;;;19.30;99.90;;;;;;5092646;28;20051;-78
2022/07/11 09:10:17;;;;;;;0.20;0.20;;;19.30;99.90;;;;;;5074212;28;20047;-79
2022/07/11 09:12:59;;;;;;;1.35;0.57;;;19.30;99.90;;;;;;5074550;28;20560;-78
2022/07/11 09:15:41;;;;;;;;;;;19.60;99.90;;;;;;5093292;28;20491;-78
2022/07/11 09:18:31;;;;;;;0.60;0.30;;;19.70;99.90;;;;;;5074590;28;19923;-78
2022/07/11 09:26:44;;;;;;;0.40;0.40;;;21.30;99.90;;;;;;5092445;28;20144;-79
2022/07/11 09:29:11;;;;;;;1.40;0.45;;;21.40;99.90;;;;;;5074097;28;20527;-79
2022/07/11 09:31:39;;;;;;;0.68;0.30;;;21.40;99.90;;;;;;5073777;28;20036;-79
2022/07/11 09:34:10;;;;;;;0.20;0.20;;;21.20;99.90;;;;;;5074315;28;20047;-78
2022/07/11 09:36:55;;;;;;;1.10;0.43;;;21.00;99.90;;;;;;5092489;28;20036;-79
2022/07/11 09:39:23;;;;;;;0.32;0.20;;;20.60;99.90;;;;;;5091460;28;20274;-78
2022/07/11 09:41:54;;;;;;;0.63;0.10;;;20.50;99.90;;;;;;5057191;28;20036;-79
2022/07/11 09:44:27;;;;;;;1.02;0.50;;;20.30;99.90;;;;;;5073835;28;20169;-79
2022/07/11 09:46:53;;;;;;;0.68;0.20;;;20.30;99.90;;;;;;5091958;28;20097;-78
2022/07/11 09:49:38;;;;;;;0.63;0.40;;;20.20;99.90;;;;;;5092276;28;20124;-78
2022/07/11 09:52:10;;;;;;;0.95;0.32;;;20.30;99.90;;;;;;5092079;28;20039;-78
2022/07/11 09:54:53;;;;;;;1.17;0.40;;;20.20;99.90;;;;;;5073634;28;20517;-79
2022/07/11 09:57:18;;;;;;;2.17;0.38;;;20.30;99.90;;;;;;5057189;28;20099;-78
2022/07/11 09:59:54;;;;;;;0.52;0.30;;;20.20;99.90;;;;;;5073573;28;20050;-79
2022/07/11 10:02:20;;;;;;;1.45;0.40;;;20.30;99.90;;;;;;5092337;28;20194;-79
2022/07/11 10:04:46;;;;;;;0.63;0.40;;;20.30;99.90;;;;;;5057379;28;20086;-79
2022/07/11 10:07:12;;;;;;;0.32;0.30;;;20.30;99.90;;;;;;5090875;28;20042;-79
2022/07/11 10:09:37;;;;;;;1.67;0.35;;;20.20;99.90;;;;;;5075057;28;20044;-79
2022/07/11 10:12:03;;;;;;;0.60;0.50;;;20.30;99.90;;;;;;5057105;28;20118;-78
2022/07/11 10:14:30;;;;;;;0.15;0.10;;;20.30;99.90;;;;;;5073707;28;20047;-78
2022/07/11 10:17:05;;;;;;;1.75;0.17;;;20.40;99.90;;;;;;5091886;28;20036;-79
2022/07/11 10:19:48;;;;;;;0.40;0.30;;;20.60;99.90;;;;;;5072831;28;20036;-78
2022/07/11 10:22:25;;;;;;;0.73;0.20;;;20.80;99.90;;;;;;5091569;28;20141;-79
2022/07/11 10:25:26;;;;;;;0.93;0.30;;;20.90;99.90;;;;;;5091378;28;20235;-79
2022/07/11 10:28:01;;;;;;;0.70;0.30;;;21.10;99.90;;;;;;5082958;28;20080;-79
2022/07/11 10:30:46;;;;;;;0.30;0.20;;;21.20;99.90;;;;;;5072957;28;20127;-79
2022/07/11 10:33:14;;;;;;;0.45;0.20;;;21.40;99.90;;;;;;5072942;28;20047;-78
2022/07/11 10:35:42;;;;;;;0.38;0.38;;;21.40;99.90;;;;;;5073058;28;20553;-78
2022/07/11 10:38:08;;;;;;;0.45;0.22;;;21.30;99.90;;;;;;5091445;28;20487;-79
2022/07/11 10:40:47;;;;;;;0.70;0.40;;;21.20;99.90;;;;;;5073790;28;20054;-79
2022/07/11 10:43:35;;;;;;;0.65;0.22;;;21.10;99.90;;;;;;5092918;28;20178;-79
2022/07/11 10:46:09;;;;;;;0.55;0.30;;;20.90;99.90;;;;;;5073158;28;20529;-77
2022/07/11 10:48:58;;;;;;;0.70;0.30;;;20.90;99.90;;;;;;5091058;28;20600;-78
2022/07/11 10:51:44;;;;;;;0.70;0.45;;;21.10;99.90;;;;;;5094414;28;20086;-78
2022/07/11 10:54:41;;;;;;;0.28;0.28;;;21.20;99.90;;;;;;5079527;28;20427;-78
2022/07/11 10:57:26;;;;;;;0.70;0.30;;;21.30;99.90;;;;;;5098081;28;20047;-78
2022/07/11 11:00:08;;;;;;;0.20;0.20;;;21.40;99.90;;;;;;5079499;28;20059;-78
2022/07/11 11:03:02;;;;;;;0.30;0.20;;;21.30;99.90;;;;;;5079824;28;20090;-79
2022/07/11 11:05:48;;;;;;;0.63;0.20;;;21.30;99.90;;;;;;5098415;28;20048;-77
2022/07/11 11:08:36;;;;;;;0.63;0.38;;;21.20;99.90;;;;;;5079560;28;20036;-79
2022/07/11 11:11:23;;;;;;;0.77;0.22;;;21.30;99.90;;;;;;5079661;28;20066;-79
2022/07/11 11:14:26;;;;;;;0.20;0.20;;;21.30;99.90;;;;;;5097570;28;20048;-79
2022/07/11 11:16:52;;;;;;;0.20;0.20;;;21.30;99.90;;;;;;5062786;28;20036;-78
2022/07/11 11:19:57;;;;;;;1.08;0.17;;;21.40;99.90;;;;;;5063134;28;20398;-79
2022/07/11 11:22:24;;;;;;;1.92;0.22;;;21.40;99.90;;;;;;5079344;28;20079;-79
2022/07/11 11:24:55;;;;;;;0.52;0.25;;;21.30;99.90;;;;;;5079547;28;20044;-78
2022/07/11 11:27:25;;;;;;;0.35;0.20;;;21.30;99.90;;;;;;5080023;28;20044;-79
2022/07/11 11:29:53;;;;;;;0.35;0.32;;;21.20;99.90;;;;;;5062824;28;20036;-79
2022/07/11 11:32:21;;;;;;;0.20;0.20;;;21.20;99.90;;;;;;5062691;28;20036;-79
2022/07/11 11:34:47;;;;;;;0.30;0.20;;;21.30;99.90;;;;;;5079373;28;20036;-79
2022/07/11 11:37:15;;;;;;;0.10;0.10;;;21.30;99.90;;;;;;5062629;28;20395;-79
2022/07/11 11:39:41;;;;;;;0.10;0.10;;;21.40;99.90;;;;;;5062305;28;20068;-78
2022/07/11 11:42:09;;;;;;;0.22;0.22;;;21.40;99.90;;;;;;5096192;28;20115;-79
2022/07/11 11:44:53;;;;;;;0.30;0.30;;;21.40;99.90;;;;;;5074848;28;20051;-78
2022/07/11 11:47:20;;;;;;;0.35;0.20;;;21.40;99.90;;;;;;5087323;28;20038;-78
2022/07/11 11:49:47;;;;;;;0.35;0.20;;;21.40;99.90;;;;;;5104654;28;20024;-78
2022/07/11 11:52:13;;;;;;;0.32;0.20;;;21.30;99.90;;;;;;5114735;28;20043;-79
2022/07/11 11:54:39;;;;;;;0.73;0.30;;;21.30;99.90;;;;;;5097009;28;20086;-78
2022/07/11 11:57:12;;;;;;;1.27;0.40;;;21.20;99.90;;;;;;5078794;28;20421;-78
2022/07/11 11:59:40;;;;;;;0.32;0.32;;;21.20;99.90;;;;;;5061819;28;20044;-78
2022/07/11 12:02:06;;;;;;;0.30;0.30;;;21.20;99.90;;;;;;5077660;28;20075;-79
2022/07/11 12:04:34;;;;;;;0.20;0.20;;;21.30;99.90;;;;;;5058582;28;20044;-79
2022/07/11 12:07:03;;;;;;;0.30;0.20;;;21.40;99.90;;;;;;5058838;28;20120;-78
2022/07/11 12:09:50;;;;;;;1.33;0.20;;;21.50;99.90;;;;;;5075263;28;20519;-79
2022/07/11 12:15:06;;;;;;;0.68;0.20;;;21.90;99.90;;;;;;5075335;28;20044;-79
2022/07/11 12:17:32;;;;;;;0.30;0.30;;;22.00;99.90;;;;;;5058791;28;20100;-79
2022/07/11 12:19:58;;;;;;;0.38;0.20;;;21.90;99.90;;;;;;5075248;28;20474;-79
2022/07/11 12:22:25;;;;;;;0.10;0.10;;;21.80;99.90;;;;;;5075278;28;20509;-79
2022/07/11 12:24:52;;;;;;;0.20;0.20;;;21.70;99.90;;;;;;5058797;28;20040;-79
2022/07/11 12:27:25;;;;;;;0.20;0.20;;;21.80;99.90;;;;;;5058399;28;20036;-79
2022/07/11 12:29:52;;;;;;;5.07;0.55;;;22.10;99.90;;;;;;5075024;28;20048;-79
2022/07/11 12:32:18;;;;;;;0.20;0.20;;;22.20;99.90;;;;;;5075138;28;20074;-79
2022/07/11 12:34:46;;;;;;;0.80;0.20;;;22.30;99.90;;;;;;5075483;28;20500;-79
2022/07/11 12:37:14;;;;;;;0.20;0.20;;;22.30;99.90;;;;;;5058957;28;20521;-79
2022/07/11 12:40:00;;;;;;;0.65;0.30;;;22.30;99.90;;;;;;5058658;28;20044;-79
2022/07/11 12:42:28;;;;;;;0.40;0.30;;;22.20;99.90;;;;;;5058856;28;20044;-79
2022/07/11 12:45:07;;;;;;;0.30;0.30;;;22.10;99.90;;;;;;5058874;28;20047;-79
2022/07/11 12:47:44;;;;;;;0.30;0.30;;;22.10;99.90;;;;;;5058596;28;20052;-78
2022/07/11 12:50:23;;;;;;;0.40;0.20;;;22.10;99.90;;;;;;5058363;28;20072;-79
2022/07/11 12:52:54;;;;;;;0.30;0.30;;;22.20;99.90;;;;;;5058585;28;20032;-80
2022/07/11 12:55:34;;;;;;;0.63;0.30;;;22.40;99.90;;;;;;5058402;28;20051;-79
2022/07/11 12:58:03;;;;;;;1.05;0.40;;;22.50;99.90;;;;;;5058613;28;20126;-78
2022/07/11 13:00:31;;;;;;;0.13;0.13;;;22.70;99.90;;;;;;5058127;28;20048;-79
2022/07/11 13:02:57;;;;;;;1.25;0.30;;;22.80;99.90;;;;;;5074959;28;20169;-79